Time;durP1;ratioP1;P1;durP2;ratioP2;P2;SDS_P1;SDS_P2;PMS_P1;PMS_P2;Temp;Humidity;BMP_temperature;BMP_pressure;BME280_temperature;BME280_humidity;BME280_pressure;Samples;Min_cycle;Max_cycle;Signal;HPM_P1;HPM_P2
2022/03/21 00:00:39;;;;;;;7.50;6.07;;;;;;;;;;5074425;28;20266;-55
2022/03/21 00:03:06;;;;;;;7.20;6.03;;;;;;;;;;5074422;28;20328;-55
2022/03/21 00:05:33;;;;;;;9.10;6.60;;;;;;;;;;5074437;28;20569;-55
2022/03/21 00:07:59;;;;;;;8.27;6.23;;;;;;;;;;5074306;28;20805;-55
2022/03/21 00:10:25;;;;;;;7.60;6.27;;;;;;;;;;5074261;28;20228;-56
2022/03/21 00:12:51;;;;;;;7.37;6.10;;;;;;;;;;5074185;28;20207;-55
2022/03/21 00:15:17;;;;;;;7.83;6.50;;;;;;;;;;5074242;28;20196;-55
2022/03/21 00:17:43;;;;;;;6.90;5.97;;;;;;;;;;5074326;28;20248;-55
2022/03/21 00:20:12;;;;;;;7.20;6.50;;;;;;;;;;5073997;28;20521;-56
2022/03/21 00:22:38;;;;;;;8.17;6.43;;;;;;;;;;5073952;28;20208;-56
2022/03/21 00:25:05;;;;;;;8.43;6.50;;;;;;;;;;5073831;28;20485;-56
2022/03/21 00:27:31;;;;;;;7.83;6.13;;;;;;;;;;5073918;28;20216;-55
2022/03/21 00:29:57;;;;;;;8.67;6.30;;;;;;;;;;5073647;28;20227;-54
2022/03/21 00:32:23;;;;;;;7.70;5.87;;;;;;;;;;5073875;28;20440;-55
2022/03/21 00:34:49;;;;;;;6.90;6.20;;;;;;;;;;5073827;28;20202;-54
2022/03/21 00:37:17;;;;;;;7.97;6.23;;;;;;;;;;5073879;28;20556;-54
2022/03/21 00:39:43;;;;;;;9.43;6.40;;;;;;;;;;5071903;28;20449;-52
2022/03/21 00:42:12;;;;;;;8.43;6.03;;;;;;;;;;5072182;28;20797;-55
2022/03/21 00:44:38;;;;;;;10.27;6.37;;;;;;;;;;5073532;28;20537;-55
2022/03/21 00:47:04;;;;;;;7.27;6.20;;;;;;;;;;5073620;28;20426;-55
2022/03/21 00:49:31;;;;;;;8.77;6.80;;;;;;;;;;5073385;28;20557;-55
2022/03/21 00:51:57;;;;;;;6.80;6.10;;;;;;;;;;5073670;28;20425;-54
2022/03/21 00:54:24;;;;;;;6.50;5.87;;;;;;;;;;5073499;28;20451;-54
2022/03/21 00:56:50;;;;;;;8.43;6.40;;;;;;;;;;5073468;28;20670;-54
2022/03/21 00:59:16;;;;;;;8.53;6.23;;;;;;;;;;5073621;28;20484;-55
2022/03/21 01:01:42;;;;;;;8.03;6.00;;;;;;;;;;5073085;28;20203;-55
2022/03/21 01:04:09;;;;;;;11.00;6.50;;;;;;;;;;5073295;28;20198;-55
2022/03/21 01:06:35;;;;;;;10.57;7.03;;;;;;;;;;5072845;28;20458;-52
2022/03/21 01:09:01;;;;;;;8.13;6.13;;;;;;;;;;5073204;28;20473;-53
2022/03/21 01:11:28;;;;;;;9.87;6.83;;;;;;;;;;5073090;28;20430;-54
2022/03/21 01:13:54;;;;;;;8.97;6.83;;;;;;;;;;5073029;28;20489;-54
2022/03/21 01:16:20;;;;;;;7.00;5.77;;;;;;;;;;5073195;28;20466;-54
2022/03/21 01:18:46;;;;;;;8.47;6.47;;;;;;;;;;5072777;28;20223;-54
2022/03/21 01:21:12;;;;;;;9.27;6.53;;;;;;;;;;5072559;28;20476;-54
2022/03/21 01:23:39;;;;;;;7.53;6.20;;;;;;;;;;5072223;28;20243;-54
2022/03/21 01:26:05;;;;;;;8.23;6.73;;;;;;;;;;5072836;28;20440;-54
2022/03/21 01:28:32;;;;;;;11.60;6.67;;;;;;;;;;5072664;28;20931;-54
2022/03/21 01:30:58;;;;;;;9.90;6.63;;;;;;;;;;5072771;28;20492;-54
2022/03/21 01:33:24;;;;;;;7.57;6.23;;;;;;;;;;5072711;28;20513;-54
2022/03/21 01:35:50;;;;;;;11.30;6.57;;;;;;;;;;5072708;28;20444;-54
2022/03/21 01:38:16;;;;;;;7.07;6.33;;;;;;;;;;5072640;28;20442;-55
2022/03/21 01:40:42;;;;;;;7.63;6.60;;;;;;;;;;5072546;28;20192;-54
2022/03/21 01:43:09;;;;;;;9.27;6.60;;;;;;;;;;5072738;28;20204;-54
2022/03/21 01:45:36;;;;;;;10.03;6.67;;;;;;;;;;5072346;28;20187;-54
2022/03/21 01:48:02;;;;;;;7.00;6.10;;;;;;;;;;5072654;28;20462;-54
2022/03/21 01:50:29;;;;;;;8.13;6.10;;;;;;;;;;5072459;28;20470;-54
2022/03/21 01:55:48;;;;;;;10.97;6.60;;;;;;;;;;5072346;28;20425;-54
2022/03/21 01:58:14;;;;;;;7.53;6.73;;;;;;;;;;5072436;28;20924;-54
2022/03/21 02:00:42;;;;;;;8.93;6.50;;;;;;;;;;5072100;28;20445;-54
2022/03/21 02:03:08;;;;;;;8.67;6.93;;;;;;;;;;5072326;28;20517;-54
2022/03/21 02:05:36;;;;;;;8.73;6.80;;;;;;;;;;5072090;28;20859;-55
2022/03/21 02:08:02;;;;;;;8.07;6.40;;;;;;;;;;5072209;28;20286;-54
2022/03/21 02:10:29;;;;;;;7.73;6.83;;;;;;;;;;5072130;28;20566;-54
2022/03/21 02:12:55;;;;;;;8.27;6.50;;;;;;;;;;5071507;28;20438;-54
2022/03/21 02:15:21;;;;;;;8.87;6.80;;;;;;;;;;5071952;28;20804;-54
2022/03/21 02:17:49;;;;;;;7.53;6.40;;;;;;;;;;5071912;28;20209;-54
2022/03/21 02:20:17;;;;;;;7.83;6.63;;;;;;;;;;5072099;28;20950;-54
2022/03/21 02:22:49;;;;;;;7.33;6.07;;;;;;;;;;5071956;28;20484;-54
2022/03/21 02:25:21;;;;;;;7.47;6.40;;;;;;;;;;5071750;28;20495;-55
2022/03/21 02:27:49;;;;;;;8.63;6.53;;;;;;;;;;5071828;28;20450;-54
2022/03/21 02:30:15;;;;;;;7.80;7.00;;;;;;;;;;5071793;28;20984;-55
2022/03/21 02:32:41;;;;;;;9.77;7.03;;;;;;;;;;5072043;28;20483;-54
2022/03/21 02:35:09;;;;;;;10.20;7.10;;;;;;;;;;5071994;28;20549;-54
2022/03/21 02:37:36;;;;;;;12.20;6.80;;;;;;;;;;5071793;28;20828;-54
2022/03/21 02:40:03;;;;;;;11.27;7.13;;;;;;;;;;5071810;28;20496;-54
2022/03/21 02:42:30;;;;;;;8.77;7.40;;;;;;;;;;5072024;28;20461;-54
2022/03/21 02:44:56;;;;;;;9.33;6.70;;;;;;;;;;5071629;28;20813;-55
2022/03/21 02:47:22;;;;;;;11.17;7.40;;;;;;;;;;5071798;28;20460;-54
2022/03/21 02:49:48;;;;;;;9.10;6.70;;;;;;;;;;5071405;28;20231;-54
2022/03/21 02:52:15;;;;;;;9.20;7.33;;;;;;;;;;5071831;28;20196;-54
2022/03/21 02:54:41;;;;;;;9.47;7.17;;;;;;;;;;5071553;28;20442;-54
2022/03/21 02:57:07;;;;;;;8.03;6.40;;;;;;;;;;5072002;28;20848;-54
2022/03/21 02:59:34;;;;;;;9.70;7.03;;;;;;;;;;5071761;28;20202;-54
2022/03/21 03:02:00;;;;;;;8.67;6.90;;;;;;;;;;5071651;28;20651;-54
2022/03/21 03:04:27;;;;;;;8.77;7.07;;;;;;;;;;5071608;28;20436;-54
2022/03/21 03:06:53;;;;;;;7.93;7.07;;;;;;;;;;5071560;28;20948;-54
2022/03/21 03:09:19;;;;;;;9.47;6.83;;;;;;;;;;5071401;28;20497;-54
2022/03/21 03:11:45;;;;;;;8.23;6.47;;;;;;;;;;5071467;28;20442;-54
2022/03/21 03:14:12;;;;;;;8.47;6.77;;;;;;;;;;5071271;28;20446;-54
2022/03/21 03:16:39;;;;;;;9.90;7.10;;;;;;;;;;5071336;28;20190;-54
2022/03/21 03:19:05;;;;;;;8.57;7.00;;;;;;;;;;5071282;28;20442;-54
2022/03/21 03:21:35;;;;;;;10.33;7.43;;;;;;;;;;5071424;28;20433;-54
2022/03/21 03:24:02;;;;;;;8.40;7.10;;;;;;;;;;5071013;28;20967;-54
2022/03/21 03:26:28;;;;;;;9.83;7.37;;;;;;;;;;5073907;28;20487;-54
2022/03/21 03:28:54;;;;;;;7.87;7.07;;;;;;;;;;5074937;28;20442;-54
2022/03/21 03:31:20;;;;;;;7.67;6.47;;;;;;;;;;5074886;28;20282;-54
2022/03/21 03:33:48;;;;;;;10.27;7.53;;;;;;;;;;5074991;28;20229;-54
2022/03/21 03:36:15;;;;;;;11.67;6.87;;;;;;;;;;5075057;28;20958;-54
2022/03/21 03:38:41;;;;;;;9.10;7.33;;;;;;;;;;5074817;28;20959;-54
2022/03/21 03:41:08;;;;;;;8.43;6.83;;;;;;;;;;5074918;28;20414;-54
2022/03/21 03:43:34;;;;;;;8.97;7.17;;;;;;;;;;5074711;28;20196;-54
2022/03/21 03:46:00;;;;;;;8.17;6.67;;;;;;;;;;5074779;28;20425;-54
2022/03/21 03:48:26;;;;;;;7.97;6.93;;;;;;;;;;5074710;28;20452;-54
2022/03/21 03:50:53;;;;;;;9.07;6.53;;;;;;;;;;5074547;28;20274;-54
2022/03/21 03:53:19;;;;;;;9.10;7.40;;;;;;;;;;5074646;28;20521;-57
2022/03/21 03:55:45;;;;;;;9.20;7.20;;;;;;;;;;5074613;28;20454;-54
2022/03/21 03:58:11;;;;;;;9.73;7.27;;;;;;;;;;5074562;28;20705;-54
2022/03/21 04:00:37;;;;;;;9.30;7.40;;;;;;;;;;5074417;28;20234;-54
2022/03/21 04:05:49;;;;;;;10.13;7.80;;;;;;;;;;5073808;28;20429;-54
2022/03/21 04:08:16;;;;;;;7.57;6.80;;;;;;;;;;5073834;28;20880;-54
2022/03/21 04:10:42;;;;;;;7.87;7.07;;;;;;;;;;5073709;28;20519;-54
2022/03/21 04:13:08;;;;;;;7.97;6.70;;;;;;;;;;5073755;28;20442;-54
2022/03/21 04:15:34;;;;;;;10.93;7.47;;;;;;;;;;5073613;28;20199;-54
2022/03/21 04:18:01;;;;;;;10.03;7.33;;;;;;;;;;5073796;28;20798;-54
2022/03/21 04:20:29;;;;;;;8.13;6.77;;;;;;;;;;5073808;28;20321;-54
2022/03/21 04:22:55;;;;;;;9.60;7.33;;;;;;;;;;5073466;28;20832;-54
2022/03/21 04:25:22;;;;;;;9.73;7.27;;;;;;;;;;5073489;28;20473;-54
2022/03/21 04:27:49;;;;;;;8.57;7.40;;;;;;;;;;5073594;28;20464;-54
2022/03/21 04:30:15;;;;;;;9.77;7.23;;;;;;;;;;5073656;28;20470;-54
2022/03/21 04:32:43;;;;;;;8.93;7.17;;;;;;;;;;5073464;28;20492;-54
2022/03/21 04:35:10;;;;;;;7.93;7.13;;;;;;;;;;5073430;28;20928;-54
2022/03/21 04:37:36;;;;;;;9.47;7.80;;;;;;;;;;5072832;28;20426;-54
2022/03/21 04:40:02;;;;;;;12.33;8.10;;;;;;;;;;5073340;28;20537;-54
2022/03/21 04:42:30;;;;;;;10.30;7.50;;;;;;;;;;5073371;28;20294;-55
2022/03/21 04:44:56;;;;;;;9.73;7.63;;;;;;;;;;5073082;28;20873;-54
2022/03/21 04:47:22;;;;;;;10.23;7.70;;;;;;;;;;5073330;28;20469;-54
2022/03/21 04:49:48;;;;;;;9.20;7.20;;;;;;;;;;5073003;28;20216;-54
2022/03/21 04:52:14;;;;;;;7.97;7.17;;;;;;;;;;5073295;28;20221;-54
2022/03/21 04:54:40;;;;;;;12.57;7.80;;;;;;;;;;5073059;28;20522;-54
2022/03/21 04:57:08;;;;;;;9.07;8.00;;;;;;;;;;5072989;28;20495;-54
2022/03/21 04:59:36;;;;;;;11.20;7.90;;;;;;;;;;5072860;28;20430;-54
2022/03/21 05:02:02;;;;;;;10.07;7.80;;;;;;;;;;5072841;28;20426;-54
2022/03/21 05:04:29;;;;;;;10.90;7.37;;;;;;;;;;5072695;28;20441;-53
2022/03/21 05:06:55;;;;;;;10.37;7.90;;;;;;;;;;5072897;28;20442;-53
2022/03/21 05:09:21;;;;;;;9.80;8.00;;;;;;;;;;5073083;28;20470;-53
2022/03/21 05:11:47;;;;;;;10.53;8.37;;;;;;;;;;5072996;28;20545;-54
2022/03/21 05:14:13;;;;;;;10.33;8.17;;;;;;;;;;5073007;28;20202;-54
2022/03/21 05:16:41;;;;;;;12.60;8.97;;;;;;;;;;5072927;28;20233;-54
2022/03/21 05:19:07;;;;;;;11.50;8.20;;;;;;;;;;5073027;28;20222;-54
2022/03/21 05:21:32;;;;;;;10.27;8.03;;;;;;;;;;5072872;28;20438;-54
2022/03/21 05:32:14;;;;;;;10.83;8.10;;;;;;;;;;5072702;28;20568;-54
2022/03/21 05:37:24;;;;;;;10.53;8.23;;;;;;;;;;5072683;28;20413;-53
2022/03/21 05:42:35;;;;;;;10.53;7.63;;;;;;;;;;5072434;28;20417;-54
2022/03/21 05:45:01;;;;;;;9.87;8.30;;;;;;;;;;5072488;28;20438;-53
2022/03/21 05:47:28;;;;;;;11.47;7.70;;;;;;;;;;5072137;28;20203;-54
2022/03/21 05:49:54;;;;;;;9.50;8.00;;;;;;;;;;5071927;28;20226;-54
2022/03/21 05:52:20;;;;;;;8.53;7.50;;;;;;;;;;5072353;28;20425;-54
2022/03/21 05:54:46;;;;;;;8.63;7.73;;;;;;;;;;5072265;28;20452;-54
2022/03/21 05:57:12;;;;;;;10.63;7.40;;;;;;;;;;5072345;28;20195;-54
2022/03/21 06:02:23;;;;;;;8.83;7.90;;;;;;;;;;5072254;28;20649;-55
2022/03/21 06:04:50;;;;;;;9.63;7.77;;;;;;;;;;5072078;28;20517;-55
2022/03/21 06:07:17;;;;;;;11.03;8.10;;;;;;;;;;5072195;28;20525;-55
2022/03/21 06:09:43;;;;;;;9.73;8.30;;;;;;;;;;5071800;28;20477;-55
2022/03/21 06:12:10;;;;;;;9.60;8.03;;;;;;;;;;5072020;28;20499;-54
2022/03/21 06:14:36;;;;;;;9.43;8.30;;;;;;;;;;5070918;28;20720;-55
2022/03/21 06:17:02;;;;;;;10.87;8.93;;;;;;;;;;5072039;28;20429;-54
2022/03/21 06:19:28;;;;;;;9.07;7.77;;;;;;;;;;5071340;28;20733;-55
2022/03/21 06:21:55;;;;;;;11.30;8.03;;;;;;;;;;5071832;28;20203;-55
2022/03/21 06:24:21;;;;;;;12.50;8.47;;;;;;;;;;5071925;28;20242;-55
2022/03/21 06:26:47;;;;;;;11.60;7.93;;;;;;;;;;5071795;28;20445;-54
2022/03/21 06:29:13;;;;;;;12.00;8.30;;;;;;;;;;5072106;28;20238;-54
2022/03/21 06:31:39;;;;;;;10.37;8.47;;;;;;;;;;5071621;28;20187;-54
2022/03/21 06:34:05;;;;;;;11.47;8.03;;;;;;;;;;5071510;28;20673;-54
2022/03/21 06:36:31;;;;;;;13.87;9.53;;;;;;;;;;5071654;28;20429;-55
2022/03/21 06:38:58;;;;;;;11.93;8.03;;;;;;;;;;5071740;28;20253;-55
2022/03/21 06:41:24;;;;;;;11.60;8.67;;;;;;;;;;5071906;28;20430;-55
2022/03/21 06:43:50;;;;;;;10.30;8.20;;;;;;;;;;5071581;28;20511;-55
2022/03/21 06:46:16;;;;;;;9.93;8.57;;;;;;;;;;5071671;28;20195;-54
2022/03/21 06:48:42;;;;;;;10.83;8.67;;;;;;;;;;5071339;28;20445;-54
2022/03/21 06:51:08;;;;;;;10.73;8.67;;;;;;;;;;5071694;28;20790;-54
2022/03/21 06:53:34;;;;;;;10.50;8.60;;;;;;;;;;5071646;28;20248;-54
2022/03/21 06:56:01;;;;;;;11.53;8.70;;;;;;;;;;5071634;28;20286;-54
2022/03/21 06:58:27;;;;;;;10.23;8.50;;;;;;;;;;5071363;28;20206;-54
2022/03/21 07:00:53;;;;;;;10.83;8.87;;;;;;;;;;5074664;28;20442;-54
2022/03/21 07:03:19;;;;;;;10.27;8.37;;;;;;;;;;5075587;28;20801;-54
2022/03/21 07:05:45;;;;;;;12.17;9.07;;;;;;;;;;5075304;28;20191;-54
2022/03/21 07:08:12;;;;;;;10.83;8.73;;;;;;;;;;5075564;28;20200;-54
2022/03/21 07:10:43;;;;;;;13.03;8.80;;;;;;;;;;5075298;28;20672;-54
2022/03/21 07:13:11;;;;;;;10.43;8.70;;;;;;;;;;5074634;28;20829;-54
2022/03/21 07:15:37;;;;;;;11.00;8.57;;;;;;;;;;5075119;28;20445;-54
2022/03/21 07:18:03;;;;;;;11.33;8.83;;;;;;;;;;5075050;28;20572;-54
2022/03/21 07:20:29;;;;;;;11.97;8.23;;;;;;;;;;5075137;28;20283;-54
2022/03/21 07:22:56;;;;;;;12.37;9.73;;;;;;;;;;5075042;28;20203;-54
2022/03/21 07:25:22;;;;;;;10.70;8.67;;;;;;;;;;5075002;28;20741;-54
2022/03/21 07:27:49;;;;;;;12.27;9.10;;;;;;;;;;5074983;28;20688;-55
2022/03/21 07:30:17;;;;;;;13.13;8.80;;;;;;;;;;5075105;28;20473;-54
2022/03/21 07:32:43;;;;;;;10.97;9.53;;;;;;;;;;5075036;28;20688;-54
2022/03/21 07:35:09;;;;;;;10.23;9.23;;;;;;;;;;5075010;28;20203;-58
2022/03/21 07:37:39;;;;;;;10.20;8.90;;;;;;;;;;5074667;28;20203;-54
2022/03/21 07:40:06;;;;;;;11.67;9.43;;;;;;;;;;5074939;28;20196;-54
2022/03/21 07:42:33;;;;;;;12.77;9.77;;;;;;;;;;5074854;28;20203;-54
2022/03/21 07:47:45;;;;;;;11.47;9.27;;;;;;;;;;5074778;28;20286;-54
2022/03/21 07:50:11;;;;;;;12.07;9.43;;;;;;;;;;5074555;28;20277;-54
2022/03/21 07:52:37;;;;;;;12.53;9.37;;;;;;;;;;5074595;28;20620;-54
2022/03/21 07:55:03;;;;;;;9.77;8.73;;;;;;;;;;5074471;28;20203;-54
2022/03/21 07:57:29;;;;;;;11.67;8.87;;;;;;;;;;5074576;28;20299;-54
2022/03/21 07:59:55;;;;;;;10.50;9.30;;;;;;;;;;5074457;28;20290;-55
2022/03/21 08:02:21;;;;;;;10.30;9.20;;;;;;;;;;5074496;28;20199;-55
2022/03/21 08:04:50;;;;;;;10.47;8.77;;;;;;;;;;5074270;28;20198;-53
2022/03/21 08:07:16;;;;;;;12.43;9.23;;;;;;;;;;5074364;28;20261;-55
2022/03/21 08:09:46;;;;;;;15.03;9.60;;;;;;;;;;5074130;28;20697;-54
2022/03/21 08:12:12;;;;;;;10.13;9.07;;;;;;;;;;5073348;28;20591;-55
2022/03/21 08:14:39;;;;;;;12.00;9.40;;;;;;;;;;5073923;28;20229;-55
2022/03/21 08:17:06;;;;;;;12.30;8.80;;;;;;;;;;5073844;28;20282;-57
2022/03/21 08:19:32;;;;;;;12.77;9.67;;;;;;;;;;5074196;28;20221;-53
2022/03/21 08:21:59;;;;;;;12.87;8.97;;;;;;;;;;5073957;28;20200;-56
2022/03/21 08:24:26;;;;;;;13.20;9.10;;;;;;;;;;5073861;28;20278;-56
2022/03/21 08:26:54;;;;;;;10.20;8.87;;;;;;;;;;5073905;28;20199;-57
2022/03/21 08:29:20;;;;;;;11.60;8.80;;;;;;;;;;5073849;28;20688;-53
2022/03/21 08:31:46;;;;;;;13.23;8.70;;;;;;;;;;5073924;28;20200;-53
2022/03/21 08:34:12;;;;;;;13.47;10.23;;;;;;;;;;5074045;28;20225;-55
2022/03/21 08:36:38;;;;;;;14.20;9.73;;;;;;;;;;5073730;28;20727;-55
2022/03/21 08:39:05;;;;;;;10.10;8.97;;;;;;;;;;5074073;28;20249;-55
2022/03/21 08:41:31;;;;;;;13.33;9.83;;;;;;;;;;5073779;28;20196;-55
2022/03/21 08:43:57;;;;;;;10.50;9.17;;;;;;;;;;5073459;28;20245;-55
2022/03/21 08:46:23;;;;;;;11.63;9.63;;;;;;;;;;5073705;28;20260;-54
2022/03/21 08:51:35;;;;;;;13.70;9.70;;;;;;;;;;5071967;28;20711;-55
2022/03/21 08:54:01;;;;;;;11.53;9.47;;;;;;;;;;5071151;28;20231;-54
2022/03/21 08:56:29;;;;;;;13.33;9.73;;;;;;;;;;5073383;28;20227;-54
2022/03/21 08:58:55;;;;;;;11.73;8.93;;;;;;;;;;5068792;28;20203;-56
2022/03/21 09:01:22;;;;;;;15.07;9.63;;;;;;;;;;5071735;28;20195;-56
2022/03/21 09:03:48;;;;;;;10.70;8.93;;;;;;;;;;5072950;28;20204;-56
2022/03/21 09:06:14;;;;;;;11.73;9.87;;;;;;;;;;5073240;28;20210;-54
2022/03/21 09:08:42;;;;;;;11.63;9.20;;;;;;;;;;5073010;28;20199;-55
2022/03/21 09:11:08;;;;;;;10.97;9.33;;;;;;;;;;5073146;28;20292;-54
2022/03/21 09:13:36;;;;;;;12.93;9.80;;;;;;;;;;5073021;28;20184;-54
2022/03/21 09:16:02;;;;;;;11.53;10.03;;;;;;;;;;5072972;28;20237;-54
2022/03/21 09:18:28;;;;;;;11.93;9.83;;;;;;;;;;5073089;28;20262;-54
2022/03/21 09:20:55;;;;;;;10.47;9.17;;;;;;;;;;5072556;28;20507;-54
2022/03/21 09:23:20;;;;;;;11.17;9.50;;;;;;;;;;5072333;28;20606;-56
2022/03/21 09:25:46;;;;;;;9.97;8.97;;;;;;;;;;5072649;28;20192;-55
2022/03/21 09:28:12;;;;;;;14.93;10.47;;;;;;;;;;5072540;28;20218;-54
2022/03/21 09:30:40;;;;;;;10.23;9.03;;;;;;;;;;5072440;28;20227;-54
2022/03/21 09:33:06;;;;;;;11.37;9.57;;;;;;;;;;5072507;28;20224;-54
2022/03/21 09:35:32;;;;;;;11.87;9.33;;;;;;;;;;5072772;28;20199;-54
2022/03/21 09:38:00;;;;;;;12.27;10.00;;;;;;;;;;5072416;28;20923;-53
2022/03/21 09:40:28;;;;;;;11.87;10.33;;;;;;;;;;5072362;28;20601;-54
2022/03/21 09:42:54;;;;;;;11.90;10.07;;;;;;;;;;5072366;28;20196;-55
2022/03/21 09:45:20;;;;;;;11.37;10.17;;;;;;;;;;5072282;28;20261;-54
2022/03/21 09:50:36;;;;;;;11.80;9.50;;;;;;;;;;5072271;28;20277;-54
2022/03/21 09:53:03;;;;;;;11.03;9.90;;;;;;;;;;5072075;28;20204;-55
2022/03/21 09:55:29;;;;;;;10.03;9.03;;;;;;;;;;5072205;28;20355;-56
2022/03/21 09:57:54;;;;;;;10.17;9.13;;;;;;;;;;5071795;28;20666;-54
2022/03/21 10:00:20;;;;;;;11.27;9.70;;;;;;;;;;5071908;28;20191;-55
2022/03/21 10:02:48;;;;;;;10.47;9.37;;;;;;;;;;5072042;28;20191;-55
2022/03/21 10:05:32;;;;;;;13.00;10.07;;;;;;;;;;5072038;28;20569;-54
2022/03/21 10:08:09;;;;;;;12.60;9.80;;;;;;;;;;5071829;28;20196;-55
2022/03/21 10:10:35;;;;;;;11.50;9.53;;;;;;;;;;5071940;28;20685;-54
2022/03/21 10:13:01;;;;;;;13.37;9.30;;;;;;;;;;5071652;28;20209;-54
2022/03/21 10:15:28;;;;;;;12.37;9.07;;;;;;;;;;5072021;28;20283;-54
2022/03/21 10:18:06;;;;;;;13.77;10.07;;;;;;;;;;5071802;28;20203;-54
2022/03/21 10:20:32;;;;;;;12.93;10.03;;;;;;;;;;5071894;28;20207;-56
2022/03/21 10:23:04;;;;;;;12.37;10.33;;;;;;;;;;5071726;28;20248;-55
2022/03/21 10:25:31;;;;;;;11.87;9.67;;;;;;;;;;5071678;28;20645;-55
2022/03/21 10:27:57;;;;;;;13.93;10.43;;;;;;;;;;5071674;28;20211;-55
2022/03/21 10:30:24;;;;;;;12.67;9.90;;;;;;;;;;5071462;28;20228;-55
2022/03/21 10:32:51;;;;;;;11.30;10.10;;;;;;;;;;5071392;28;20183;-54
2022/03/21 10:35:23;;;;;;;12.00;10.47;;;;;;;;;;5071200;28;20237;-54
2022/03/21 10:37:49;;;;;;;11.60;10.43;;;;;;;;;;5071589;28;20284;-55
2022/03/21 10:40:16;;;;;;;12.10;10.43;;;;;;;;;;5071198;28;20654;-54
2022/03/21 10:42:49;;;;;;;12.67;10.23;;;;;;;;;;5071477;28;20237;-55
2022/03/21 10:45:15;;;;;;;13.90;9.87;;;;;;;;;;5069930;28;20227;-55
2022/03/21 10:47:48;;;;;;;12.57;10.03;;;;;;;;;;5071567;28;20247;-56
2022/03/21 10:50:14;;;;;;;14.77;10.70;;;;;;;;;;5071697;28;20231;-55
2022/03/21 10:52:41;;;;;;;11.17;10.07;;;;;;;;;;5071571;28;20689;-54
2022/03/21 10:55:07;;;;;;;12.33;10.00;;;;;;;;;;5071606;28;20199;-54
2022/03/21 10:57:36;;;;;;;12.53;10.83;;;;;;;;;;5071580;28;20192;-54
2022/03/21 11:00:12;;;;;;;12.70;10.77;;;;;;;;;;5071047;28;20769;-54
2022/03/21 11:02:48;;;;;;;11.83;10.53;;;;;;;;;;5071611;28;20274;-55
2022/03/21 11:05:14;;;;;;;14.03;10.93;;;;;;;;;;5071686;28;20200;-55
2022/03/21 11:07:42;;;;;;;12.37;10.63;;;;;;;;;;5071306;28;20206;-54
2022/03/21 11:10:08;;;;;;;12.37;10.13;;;;;;;;;;5071353;28;20238;-54
2022/03/21 11:12:35;;;;;;;11.67;10.47;;;;;;;;;;5071543;28;20204;-54
2022/03/21 11:15:01;;;;;;;11.53;10.10;;;;;;;;;;5071150;28;20229;-53
2022/03/21 11:17:27;;;;;;;12.33;11.03;;;;;;;;;;5071356;28;20573;-63
2022/03/21 11:19:54;;;;;;;12.10;10.27;;;;;;;;;;5071043;28;20203;-54
2022/03/21 11:22:20;;;;;;;11.70;10.43;;;;;;;;;;5071253;28;20211;-55
2022/03/21 11:24:47;;;;;;;13.20;11.20;;;;;;;;;;5071024;28;20236;-55
2022/03/21 11:27:20;;;;;;;16.13;10.83;;;;;;;;;;5071288;28;20207;-55
2022/03/21 11:29:52;;;;;;;12.47;11.17;;;;;;;;;;5068214;28;20204;-55
2022/03/21 11:32:24;;;;;;;13.50;10.97;;;;;;;;;;5071156;28;20620;-55
2022/03/21 11:34:55;;;;;;;13.67;11.00;;;;;;;;;;5071056;28;20221;-54
2022/03/21 11:37:25;;;;;;;13.50;11.30;;;;;;;;;;5071320;28;20201;-56
2022/03/21 11:40:06;;;;;;;12.83;10.87;;;;;;;;;;5070772;28;20680;-54
2022/03/21 11:42:34;;;;;;;12.37;10.93;;;;;;;;;;5070840;28;20237;-54
2022/03/21 11:45:15;;;;;;;12.17;10.87;;;;;;;;;;5071079;28;20221;-54
2022/03/21 11:47:41;;;;;;;12.53;10.70;;;;;;;;;;5073327;28;20202;-54
2022/03/21 11:50:24;;;;;;;13.30;10.90;;;;;;;;;;5074334;28;20224;-54
2022/03/21 11:53:07;;;;;;;14.10;11.27;;;;;;;;;;5074568;28;20277;-54
2022/03/21 11:55:36;;;;;;;12.90;11.33;;;;;;;;;;5074549;28;20286;-55
2022/03/21 11:58:17;;;;;;;14.77;11.40;;;;;;;;;;5074224;28;20201;-54
2022/03/21 12:00:58;;;;;;;15.87;10.80;;;;;;;;;;5074187;28;20721;-54
2022/03/21 12:03:28;;;;;;;13.13;11.73;;;;;;;;;;5074008;28;20279;-55
2022/03/21 12:05:54;;;;;;;11.93;10.73;;;;;;;;;;5074087;28;20238;-56
2022/03/21 12:08:30;;;;;;;12.37;11.17;;;;;;;;;;5072509;28;20287;-56
2022/03/21 12:10:56;;;;;;;13.47;11.10;;;;;;;;;;5073868;28;20224;-55
2022/03/21 12:13:22;;;;;;;13.53;11.20;;;;;;;;;;5074064;28;20528;-55
2022/03/21 12:15:51;;;;;;;14.33;11.83;;;;;;;;;;5074307;28;20233;-56
2022/03/21 12:18:17;;;;;;;12.63;11.30;;;;;;;;;;5073785;28;20736;-56
2022/03/21 12:20:46;;;;;;;13.70;11.10;;;;;;;;;;5074101;28;20663;-57
2022/03/21 12:23:17;;;;;;;14.60;11.57;;;;;;;;;;5074204;28;20245;-56
2022/03/21 12:25:46;;;;;;;17.47;11.60;;;;;;;;;;5073797;28;20570;-56
2022/03/21 12:28:19;;;;;;;14.40;11.43;;;;;;;;;;5073556;28;20665;-56
2022/03/21 12:30:48;;;;;;;15.27;11.87;;;;;;;;;;5073854;28;20265;-55
2022/03/21 12:33:27;;;;;;;13.87;11.57;;;;;;;;;;5071410;28;20210;-54
2022/03/21 12:35:56;;;;;;;14.30;11.57;;;;;;;;;;5073769;28;20308;-54
2022/03/21 12:38:23;;;;;;;13.10;11.40;;;;;;;;;;5073795;28;20302;-57
2022/03/21 12:40:54;;;;;;;13.57;12.17;;;;;;;;;;5073517;28;20675;-55
2022/03/21 12:43:21;;;;;;;12.77;11.40;;;;;;;;;;5073776;28;20204;-57
2022/03/21 12:45:49;;;;;;;13.30;11.53;;;;;;;;;;5073653;28;20201;-56
2022/03/21 12:48:17;;;;;;;13.90;12.40;;;;;;;;;;5073899;28;20207;-55
2022/03/21 12:50:43;;;;;;;13.20;11.87;;;;;;;;;;5071704;28;20262;-56
2022/03/21 12:53:11;;;;;;;14.00;11.37;;;;;;;;;;5073329;28;20656;-56
2022/03/21 12:55:38;;;;;;;14.90;11.47;;;;;;;;;;5073640;28;20263;-56
2022/03/21 12:58:05;;;;;;;14.47;11.77;;;;;;;;;;5073058;28;20201;-56
2022/03/21 13:00:34;;;;;;;14.17;12.47;;;;;;;;;;5073654;28;20193;-56
2022/03/21 13:03:03;;;;;;;13.87;12.30;;;;;;;;;;5071849;28;20289;-56
2022/03/21 13:11:05;;;;;;;15.87;11.37;;;;;;;;;;5073363;28;20280;-56
2022/03/21 13:13:41;;;;;;;14.07;11.97;;;;;;;;;;5071784;28;20195;-57
2022/03/21 13:16:10;;;;;;;14.87;11.70;;;;;;;;;;5073255;28;20201;-57
2022/03/21 13:18:36;;;;;;;14.20;12.40;;;;;;;;;;5073042;28;20206;-56
2022/03/21 13:21:03;;;;;;;15.03;12.07;;;;;;;;;;5072979;28;20218;-56
2022/03/21 13:23:30;;;;;;;14.50;12.40;;;;;;;;;;5072970;28;20223;-56
2022/03/21 13:26:07;;;;;;;16.20;12.27;;;;;;;;;;5072926;28;20688;-57
2022/03/21 13:28:34;;;;;;;14.97;12.33;;;;;;;;;;5073145;28;20209;-56
2022/03/21 13:31:01;;;;;;;12.97;11.57;;;;;;;;;;5072877;28;20230;-56
2022/03/21 13:33:28;;;;;;;13.90;12.13;;;;;;;;;;5073010;28;20217;-56
2022/03/21 13:35:55;;;;;;;14.23;12.23;;;;;;;;;;5072747;28;20195;-56
2022/03/21 13:38:23;;;;;;;14.33;12.40;;;;;;;;;;5072777;28;20717;-57
2022/03/21 13:40:50;;;;;;;14.10;12.07;;;;;;;;;;5072733;28;20215;-56
2022/03/21 13:43:17;;;;;;;16.83;12.37;;;;;;;;;;5072807;28;20203;-57
2022/03/21 13:45:43;;;;;;;12.80;11.50;;;;;;;;;;5072909;28;20211;-56
2022/03/21 13:48:09;;;;;;;14.13;11.83;;;;;;;;;;5072590;28;20222;-56
2022/03/21 13:50:39;;;;;;;14.67;12.17;;;;;;;;;;5072600;28;20230;-57
2022/03/21 13:53:23;;;;;;;14.00;12.40;;;;;;;;;;5072414;28;20211;-56
2022/03/21 13:55:51;;;;;;;13.13;11.17;;;;;;;;;;5072489;28;20198;-56
2022/03/21 13:58:23;;;;;;;13.63;12.20;;;;;;;;;;5072550;28;20202;-57
2022/03/21 14:00:50;;;;;;;13.77;12.30;;;;;;;;;;5072500;28;20207;-57
2022/03/21 14:03:31;;;;;;;14.47;12.67;;;;;;;;;;5072518;28;20198;-55
2022/03/21 14:05:57;;;;;;;13.00;11.60;;;;;;;;;;5072384;28;20244;-56
2022/03/21 14:08:23;;;;;;;17.23;12.03;;;;;;;;;;5072174;28;20207;-57
2022/03/21 14:10:52;;;;;;;15.43;11.53;;;;;;;;;;5071704;28;20219;-58
2022/03/21 14:13:19;;;;;;;13.57;11.83;;;;;;;;;;5072379;28;20206;-55
2022/03/21 14:15:46;;;;;;;14.10;12.23;;;;;;;;;;5072483;28;20191;-57
2022/03/21 14:18:13;;;;;;;15.63;11.93;;;;;;;;;;5072342;28;20198;-57
2022/03/21 14:20:39;;;;;;;16.17;13.30;;;;;;;;;;5072326;28;20203;-56
2022/03/21 14:23:05;;;;;;;13.90;12.50;;;;;;;;;;5072116;28;20249;-56
2022/03/21 14:28:17;;;;;;;13.50;12.10;;;;;;;;;;5072308;28;20243;-56
2022/03/21 14:30:43;;;;;;;14.07;12.60;;;;;;;;;;5072036;28;20233;-56
2022/03/21 14:33:09;;;;;;;13.00;11.70;;;;;;;;;;5071855;28;20551;-56
2022/03/21 14:35:35;;;;;;;18.97;12.40;;;;;;;;;;5072090;28;20201;-56
2022/03/21 14:38:01;;;;;;;13.43;12.07;;;;;;;;;;5072021;28;20256;-57
2022/03/21 14:40:27;;;;;;;14.50;12.23;;;;;;;;;;5072140;28;20199;-55
2022/03/21 14:42:53;;;;;;;16.37;12.10;;;;;;;;;;5071657;28;20701;-57
2022/03/21 14:45:20;;;;;;;14.30;11.93;;;;;;;;;;5071893;28;20228;-58
2022/03/21 14:47:46;;;;;;;15.93;13.07;;;;;;;;;;5071818;28;20201;-57
2022/03/21 14:50:12;;;;;;;14.30;12.33;;;;;;;;;;5071629;28;20226;-56
2022/03/21 14:52:38;;;;;;;16.80;12.43;;;;;;;;;;5071928;28;20197;-55
2022/03/21 14:55:05;;;;;;;16.50;13.27;;;;;;;;;;5071709;28;20200;-56
2022/03/21 14:57:31;;;;;;;14.20;11.53;;;;;;;;;;5069919;28;20204;-57
2022/03/21 14:59:57;;;;;;;15.77;12.33;;;;;;;;;;5071753;28;20243;-58
2022/03/21 15:02:24;;;;;;;15.73;12.23;;;;;;;;;;5071855;28;20198;-56
2022/03/21 15:04:50;;;;;;;13.10;11.90;;;;;;;;;;5071674;28;20210;-54
2022/03/21 15:07:16;;;;;;;18.20;12.73;;;;;;;;;;5071677;28;20612;-55